sensor_id;sensor_type;location;lat;lon;timestamp;temperature;humidity
19085;DHT22;9675;51.538;6.728;2023-06-10T00:01:46;26.10;99.20
19085;DHT22;9675;51.538;6.728;2023-06-10T00:04:13;26.10;99.30
19085;DHT22;9675;51.538;6.728;2023-06-10T00:06:42;26.00;99.30
19085;DHT22;9675;51.538;6.728;2023-06-10T00:09:09;26.00;99.40
19085;DHT22;9675;51.538;6.728;2023-06-10T00:11:39;25.90;99.40
19085;DHT22;9675;51.538;6.728;2023-06-10T00:14:06;25.90;99.40
19085;DHT22;9675;51.538;6.728;2023-06-10T00:16:34;25.90;99.40
19085;DHT22;9675;51.538;6.728;2023-06-10T00:19:02;25.90;99.50
19085;DHT22;9675;51.538;6.728;2023-06-10T00:21:31;25.80;99.60
19085;DHT22;9675;51.538;6.728;2023-06-10T00:24:03;25.80;99.60
19085;DHT22;9675;51.538;6.728;2023-06-10T00:26:31;25.80;99.70
19085;DHT22;9675;51.538;6.728;2023-06-10T00:28:59;25.70;99.70
19085;DHT22;9675;51.538;6.728;2023-06-10T00:31:27;25.70;99.90
19085;DHT22;9675;51.538;6.728;2023-06-10T00:33:54;25.60;99.70
19085;DHT22;9675;51.538;6.728;2023-06-10T00:36:21;25.60;99.80
19085;DHT22;9675;51.538;6.728;2023-06-10T00:38:48;25.60;99.90
19085;DHT22;9675;51.538;6.728;2023-06-10T00:41:15;25.50;99.90
19085;DHT22;9675;51.538;6.728;2023-06-10T00:43:42;25.50;99.90
19085;DHT22;9675;51.538;6.728;2023-06-10T00:46:11;25.50;99.90
19085;DHT22;9675;51.538;6.728;2023-06-10T00:48:39;25.40;99.90
19085;DHT22;9675;51.538;6.728;2023-06-10T00:51:08;25.40;99.90
19085;DHT22;9675;51.538;6.728;2023-06-10T00:53:36;25.40;99.90
19085;DHT22;9675;51.538;6.728;2023-06-10T00:56:05;25.30;99.90
19085;DHT22;9675;51.538;6.728;2023-06-10T00:58:33;25.30;99.90
19085;DHT22;9675;51.538;6.728;2023-06-10T01:01:00;25.30;99.90
19085;DHT22;9675;51.538;6.728;2023-06-10T01:03:30;25.30;99.90
19085;DHT22;9675;51.538;6.728;2023-06-10T01:06:14;25.20;99.90
19085;DHT22;9675;51.538;6.728;2023-06-10T01:08:52;25.20;99.90
19085;DHT22;9675;51.538;6.728;2023-06-10T01:11:28;25.10;99.90
19085;DHT22;9675;51.538;6.728;2023-06-10T01:14:04;25.10;99.90
19085;DHT22;9675;51.538;6.728;2023-06-10T01:16:33;25.10;99.90
19085;DHT22;9675;51.538;6.728;2023-06-10T01:19:02;25.00;99.90
19085;DHT22;9675;51.538;6.728;2023-06-10T01:21:31;25.00;99.90
19085;DHT22;9675;51.538;6.728;2023-06-10T01:23:58;25.00;99.90
19085;DHT22;9675;51.538;6.728;2023-06-10T01:26:29;24.90;99.90
19085;DHT22;9675;51.538;6.728;2023-06-10T01:29:03;24.90;99.90
19085;DHT22;9675;51.538;6.728;2023-06-10T01:31:41;24.90;99.90
19085;DHT22;9675;51.538;6.728;2023-06-10T01:34:17;24.80;99.90
19085;DHT22;9675;51.538;6.728;2023-06-10T01:36:47;24.80;99.90
19085;DHT22;9675;51.538;6.728;2023-06-10T01:39:17;24.80;99.90
19085;DHT22;9675;51.538;6.728;2023-06-10T01:41:47;24.70;99.90
19085;DHT22;9675;51.538;6.728;2023-06-10T01:44:18;24.70;99.90
19085;DHT22;9675;51.538;6.728;2023-06-10T01:46:46;24.70;99.90
19085;DHT22;9675;51.538;6.728;2023-06-10T01:49:13;24.60;99.90
19085;DHT22;9675;51.538;6.728;2023-06-10T01:51:40;24.60;99.90
19085;DHT22;9675;51.538;6.728;2023-06-10T01:54:08;24.60;99.90
19085;DHT22;9675;51.538;6.728;2023-06-10T01:56:35;24.60;99.90
19085;DHT22;9675;51.538;6.728;2023-06-10T01:59:02;24.50;99.90
19085;DHT22;9675;51.538;6.728;2023-06-10T02:01:29;24.50;99.90
19085;DHT22;9675;51.538;6.728;2023-06-10T02:04:02;24.50;99.90
19085;DHT22;9675;51.538;6.728;2023-06-10T02:06:32;24.40;99.90
19085;DHT22;9675;51.538;6.728;2023-06-10T02:09:00;24.40;99.90
19085;DHT22;9675;51.538;6.728;2023-06-10T02:11:28;24.40;99.90
19085;DHT22;9675;51.538;6.728;2023-06-10T02:13:55;24.30;99.90
19085;DHT22;9675;51.538;6.728;2023-06-10T02:16:22;24.30;99.90
19085;DHT22;9675;51.538;6.728;2023-06-10T02:18:49;24.30;99.90
19085;DHT22;9675;51.538;6.728;2023-06-10T02:21:16;24.20;99.90
19085;DHT22;9675;51.538;6.728;2023-06-10T02:23:43;24.20;99.90
19085;DHT22;9675;51.538;6.728;2023-06-10T02:26:10;24.20;99.90
19085;DHT22;9675;51.538;6.728;2023-06-10T02:28:42;24.20;99.90
19085;DHT22;9675;51.538;6.728;2023-06-10T02:31:09;24.10;99.90
19085;DHT22;9675;51.538;6.728;2023-06-10T02:33:37;24.10;99.90
19085;DHT22;9675;51.538;6.728;2023-06-10T02:36:05;24.10;99.90
19085;DHT22;9675;51.538;6.728;2023-06-10T02:38:33;24.00;99.90
19085;DHT22;9675;51.538;6.728;2023-06-10T02:41:00;24.00;99.90
19085;DHT22;9675;51.538;6.728;2023-06-10T02:43:27;23.90;99.90
19085;DHT22;9675;51.538;6.728;2023-06-10T02:45:56;23.90;99.90
19085;DHT22;9675;51.538;6.728;2023-06-10T02:48:23;23.90;99.90
19085;DHT22;9675;51.538;6.728;2023-06-10T02:50:51;23.90;99.90
19085;DHT22;9675;51.538;6.728;2023-06-10T02:53:18;23.80;99.90
19085;DHT22;9675;51.538;6.728;2023-06-10T02:55:45;23.80;99.90
19085;DHT22;9675;51.538;6.728;2023-06-10T02:58:12;23.80;99.90
19085;DHT22;9675;51.538;6.728;2023-06-10T03:00:39;23.70;99.90
19085;DHT22;9675;51.538;6.728;2023-06-10T03:03:08;23.70;99.90
19085;DHT22;9675;51.538;6.728;2023-06-10T03:05:36;23.70;99.90
19085;DHT22;9675;51.538;6.728;2023-06-10T03:08:03;23.70;99.90
19085;DHT22;9675;51.538;6.728;2023-06-10T03:10:30;23.60;99.90
19085;DHT22;9675;51.538;6.728;2023-06-10T03:12:58;23.60;99.90
19085;DHT22;9675;51.538;6.728;2023-06-10T03:15:25;23.60;99.90
19085;DHT22;9675;51.538;6.728;2023-06-10T03:17:54;23.60;99.90
19085;DHT22;9675;51.538;6.728;2023-06-10T03:20:22;23.50;99.90
19085;DHT22;9675;51.538;6.728;2023-06-10T03:22:51;23.50;99.90
19085;DHT22;9675;51.538;6.728;2023-06-10T03:25:18;23.50;99.90
19085;DHT22;9675;51.538;6.728;2023-06-10T03:27:46;23.50;99.90
19085;DHT22;9675;51.538;6.728;2023-06-10T03:30:14;23.40;99.90
19085;DHT22;9675;51.538;6.728;2023-06-10T03:32:41;23.40;99.90
19085;DHT22;9675;51.538;6.728;2023-06-10T03:35:08;23.30;99.90
19085;DHT22;9675;51.538;6.728;2023-06-10T03:37:37;23.30;99.90
19085;DHT22;9675;51.538;6.728;2023-06-10T03:40:05;23.30;99.90
19085;DHT22;9675;51.538;6.728;2023-06-10T03:42:34;23.30;99.90
19085;DHT22;9675;51.538;6.728;2023-06-10T03:45:01;23.20;99.90
19085;DHT22;9675;51.538;6.728;2023-06-10T03:47:33;23.20;99.90
19085;DHT22;9675;51.538;6.728;2023-06-10T03:50:01;23.20;99.90
19085;DHT22;9675;51.538;6.728;2023-06-10T03:52:29;23.10;99.90
19085;DHT22;9675;51.538;6.728;2023-06-10T03:54:57;23.10;99.90
19085;DHT22;9675;51.538;6.728;2023-06-10T03:57:24;23.10;99.90
19085;DHT22;9675;51.538;6.728;2023-06-10T03:59:52;23.10;99.90
19085;DHT22;9675;51.538;6.728;2023-06-10T04:02:19;23.00;99.90
19085;DHT22;9675;51.538;6.728;2023-06-10T04:04:46;23.00;99.90
19085;DHT22;9675;51.538;6.728;2023-06-10T04:07:13;23.00;99.90
19085;DHT22;9675;51.538;6.728;2023-06-10T04:09:41;22.90;99.90
19085;DHT22;9675;51.538;6.728;2023-06-10T04:12:09;22.90;99.90
19085;DHT22;9675;51.538;6.728;2023-06-10T04:14:36;22.90;99.90
19085;DHT22;9675;51.538;6.728;2023-06-10T04:17:04;22.90;99.90
19085;DHT22;9675;51.538;6.728;2023-06-10T04:19:33;22.90;99.90
19085;DHT22;9675;51.538;6.728;2023-06-10T04:22:00;22.80;99.90
19085;DHT22;9675;51.538;6.728;2023-06-10T04:24:29;22.80;99.90
19085;DHT22;9675;51.538;6.728;2023-06-10T04:26:56;22.80;99.90
19085;DHT22;9675;51.538;6.728;2023-06-10T04:29:24;22.80;99.90
19085;DHT22;9675;51.538;6.728;2023-06-10T04:31:51;22.70;99.90
19085;DHT22;9675;51.538;6.728;2023-06-10T04:34:18;22.70;99.90
19085;DHT22;9675;51.538;6.728;2023-06-10T04:36:45;22.70;99.90
19085;DHT22;9675;51.538;6.728;2023-06-10T04:39:13;22.70;99.90
19085;DHT22;9675;51.538;6.728;2023-06-10T04:41:42;22.70;99.90
19085;DHT22;9675;51.538;6.728;2023-06-10T04:44:09;22.60;99.90
19085;DHT22;9675;51.538;6.728;2023-06-10T04:46:38;22.60;99.90
19085;DHT22;9675;51.538;6.728;2023-06-10T04:49:05;22.60;99.90
19085;DHT22;9675;51.538;6.728;2023-06-10T04:51:33;22.60;99.90
19085;DHT22;9675;51.538;6.728;2023-06-10T04:54:00;22.50;99.90
19085;DHT22;9675;51.538;6.728;2023-06-10T04:56:29;22.50;99.90
19085;DHT22;9675;51.538;6.728;2023-06-10T04:58:56;22.50;99.90
19085;DHT22;9675;51.538;6.728;2023-06-10T05:01:23;22.50;99.90
19085;DHT22;9675;51.538;6.728;2023-06-10T05:03:52;22.50;99.90
19085;DHT22;9675;51.538;6.728;2023-06-10T05:06:19;22.40;99.90
19085;DHT22;9675;51.538;6.728;2023-06-10T05:08:46;22.40;99.90
19085;DHT22;9675;51.538;6.728;2023-06-10T05:11:13;22.40;99.90
19085;DHT22;9675;51.538;6.728;2023-06-10T05:13:41;22.40;99.90
19085;DHT22;9675;51.538;6.728;2023-06-10T05:16:09;22.40;99.90
19085;DHT22;9675;51.538;6.728;2023-06-10T05:18:36;22.30;99.90
19085;DHT22;9675;51.538;6.728;2023-06-10T05:21:05;22.40;99.90
19085;DHT22;9675;51.538;6.728;2023-06-10T05:23:32;22.30;99.90
19085;DHT22;9675;51.538;6.728;2023-06-10T05:25:59;22.30;99.90
19085;DHT22;9675;51.538;6.728;2023-06-10T05:28:26;22.30;99.90
19085;DHT22;9675;51.538;6.728;2023-06-10T05:30:53;22.30;99.90
19085;DHT22;9675;51.538;6.728;2023-06-10T05:33:20;22.30;99.90
19085;DHT22;9675;51.538;6.728;2023-06-10T05:35:47;22.30;99.90
19085;DHT22;9675;51.538;6.728;2023-06-10T05:38:15;22.30;99.90
19085;DHT22;9675;51.538;6.728;2023-06-10T05:40:42;22.30;99.90
19085;DHT22;9675;51.538;6.728;2023-06-10T05:43:10;22.30;99.90
19085;DHT22;9675;51.538;6.728;2023-06-10T05:45:37;22.30;99.90
19085;DHT22;9675;51.538;6.728;2023-06-10T05:48:05;22.20;99.90
19085;DHT22;9675;51.538;6.728;2023-06-10T05:50:33;22.20;99.90
19085;DHT22;9675;51.538;6.728;2023-06-10T05:53:04;22.30;99.90
19085;DHT22;9675;51.538;6.728;2023-06-10T05:55:33;22.30;99.90
19085;DHT22;9675;51.538;6.728;2023-06-10T05:58:01;22.20;99.90
19085;DHT22;9675;51.538;6.728;2023-06-10T06:00:28;22.30;99.90
19085;DHT22;9675;51.538;6.728;2023-06-10T06:02:55;22.20;99.90
19085;DHT22;9675;51.538;6.728;2023-06-10T06:05:24;22.20;99.90
19085;DHT22;9675;51.538;6.728;2023-06-10T06:07:51;22.30;99.90
19085;DHT22;9675;51.538;6.728;2023-06-10T06:10:18;22.30;99.90
19085;DHT22;9675;51.538;6.728;2023-06-10T06:12:47;22.30;99.90
19085;DHT22;9675;51.538;6.728;2023-06-10T06:15:14;22.30;99.90
19085;DHT22;9675;51.538;6.728;2023-06-10T06:17:41;22.30;99.90
19085;DHT22;9675;51.538;6.728;2023-06-10T06:20:08;22.30;99.90
19085;DHT22;9675;51.538;6.728;2023-06-10T06:22:35;22.40;99.90
19085;DHT22;9675;51.538;6.728;2023-06-10T06:25:03;22.40;99.90
19085;DHT22;9675;51.538;6.728;2023-06-10T06:27:31;22.40;99.90
19085;DHT22;9675;51.538;6.728;2023-06-10T06:29:59;22.40;99.90
19085;DHT22;9675;51.538;6.728;2023-06-10T06:32:26;22.40;99.90
19085;DHT22;9675;51.538;6.728;2023-06-10T06:34:53;22.40;99.90
19085;DHT22;9675;51.538;6.728;2023-06-10T06:37:21;22.50;99.90
19085;DHT22;9675;51.538;6.728;2023-06-10T06:39:50;22.60;99.90
19085;DHT22;9675;51.538;6.728;2023-06-10T06:42:17;22.60;99.90
19085;DHT22;9675;51.538;6.728;2023-06-10T06:44:45;22.60;99.90
19085;DHT22;9675;51.538;6.728;2023-06-10T06:47:13;22.60;99.90
19085;DHT22;9675;51.538;6.728;2023-06-10T06:49:43;22.60;99.90
19085;DHT22;9675;51.538;6.728;2023-06-10T06:52:10;22.70;99.90
19085;DHT22;9675;51.538;6.728;2023-06-10T06:54:37;22.70;99.90
19085;DHT22;9675;51.538;6.728;2023-06-10T06:57:04;22.80;99.90
19085;DHT22;9675;51.538;6.728;2023-06-10T06:59:32;22.80;99.90
19085;DHT22;9675;51.538;6.728;2023-06-10T07:01:59;22.90;99.90
19085;DHT22;9675;51.538;6.728;2023-06-10T07:04:28;23.00;99.90
19085;DHT22;9675;51.538;6.728;2023-06-10T07:06:55;23.00;99.90
19085;DHT22;9675;51.538;6.728;2023-06-10T07:09:22;23.00;99.90
19085;DHT22;9675;51.538;6.728;2023-06-10T07:11:49;23.10;99.90
19085;DHT22;9675;51.538;6.728;2023-06-10T07:14:17;23.20;99.90
19085;DHT22;9675;51.538;6.728;2023-06-10T07:16:44;23.20;99.90
19085;DHT22;9675;51.538;6.728;2023-06-10T07:19:11;23.30;99.90
19085;DHT22;9675;51.538;6.728;2023-06-10T07:21:40;23.30;99.90
19085;DHT22;9675;51.538;6.728;2023-06-10T07:24:07;23.40;99.90
19085;DHT22;9675;51.538;6.728;2023-06-10T07:26:34;23.40;99.90
19085;DHT22;9675;51.538;6.728;2023-06-10T07:29:01;23.50;99.90
19085;DHT22;9675;51.538;6.728;2023-06-10T07:31:28;23.60;99.90
19085;DHT22;9675;51.538;6.728;2023-06-10T07:33:55;23.60;99.90
19085;DHT22;9675;51.538;6.728;2023-06-10T07:36:22;23.70;99.90
19085;DHT22;9675;51.538;6.728;2023-06-10T07:38:51;23.80;99.90
19085;DHT22;9675;51.538;6.728;2023-06-10T07:41:18;23.90;99.90
19085;DHT22;9675;51.538;6.728;2023-06-10T07:43:46;23.90;99.90
19085;DHT22;9675;51.538;6.728;2023-06-10T07:46:13;24.10;99.90
19085;DHT22;9675;51.538;6.728;2023-06-10T07:48:40;24.10;99.90
19085;DHT22;9675;51.538;6.728;2023-06-10T07:51:07;24.20;99.90
19085;DHT22;9675;51.538;6.728;2023-06-10T07:53:34;24.30;99.90
19085;DHT22;9675;51.538;6.728;2023-06-10T07:56:02;24.30;99.90
19085;DHT22;9675;51.538;6.728;2023-06-10T07:58:29;24.40;99.90
19085;DHT22;9675;51.538;6.728;2023-06-10T08:00:56;24.50;99.90
19085;DHT22;9675;51.538;6.728;2023-06-10T08:03:23;24.50;99.90
19085;DHT22;9675;51.538;6.728;2023-06-10T08:05:50;24.70;99.90
19085;DHT22;9675;51.538;6.728;2023-06-10T08:08:17;24.70;99.90
19085;DHT22;9675;51.538;6.728;2023-06-10T08:10:45;24.80;99.90
19085;DHT22;9675;51.538;6.728;2023-06-10T08:13:13;25.00;99.90
19085;DHT22;9675;51.538;6.728;2023-06-10T08:15:40;25.10;99.90
19085;DHT22;9675;51.538;6.728;2023-06-10T08:18:07;25.10;99.90
19085;DHT22;9675;51.538;6.728;2023-06-10T08:20:34;25.20;99.90
19085;DHT22;9675;51.538;6.728;2023-06-10T08:23:01;25.30;99.90
19085;DHT22;9675;51.538;6.728;2023-06-10T08:25:28;25.30;99.90
19085;DHT22;9675;51.538;6.728;2023-06-10T08:27:55;25.40;99.90
19085;DHT22;9675;51.538;6.728;2023-06-10T08:30:24;25.50;99.90
19085;DHT22;9675;51.538;6.728;2023-06-10T08:32:51;25.60;99.90
19085;DHT22;9675;51.538;6.728;2023-06-10T08:35:18;25.70;99.90
19085;DHT22;9675;51.538;6.728;2023-06-10T08:37:46;25.80;99.90
19085;DHT22;9675;51.538;6.728;2023-06-10T08:40:13;25.90;99.90
19085;DHT22;9675;51.538;6.728;2023-06-10T08:42:47;26.00;99.90
19085;DHT22;9675;51.538;6.728;2023-06-10T08:45:19;26.10;99.90
19085;DHT22;9675;51.538;6.728;2023-06-10T08:47:50;26.10;99.90
19085;DHT22;9675;51.538;6.728;2023-06-10T08:50:21;26.20;99.90
19085;DHT22;9675;51.538;6.728;2023-06-10T08:52:51;26.40;99.90
19085;DHT22;9675;51.538;6.728;2023-06-10T08:55:25;26.40;99.90
19085;DHT22;9675;51.538;6.728;2023-06-10T08:57:56;26.50;99.90
19085;DHT22;9675;51.538;6.728;2023-06-10T09:00:24;26.60;99.90
19085;DHT22;9675;51.538;6.728;2023-06-10T09:02:54;26.70;99.90
19085;DHT22;9675;51.538;6.728;2023-06-10T09:05:22;26.90;99.90
19085;DHT22;9675;51.538;6.728;2023-06-10T09:07:49;26.90;99.90
19085;DHT22;9675;51.538;6.728;2023-06-10T09:10:18;27.00;99.90
19085;DHT22;9675;51.538;6.728;2023-06-10T09:12:45;27.10;99.90
19085;DHT22;9675;51.538;6.728;2023-06-10T09:15:12;27.20;99.90
19085;DHT22;9675;51.538;6.728;2023-06-10T09:17:42;27.30;99.90
19085;DHT22;9675;51.538;6.728;2023-06-10T09:20:11;27.40;99.90
19085;DHT22;9675;51.538;6.728;2023-06-10T09:22:38;27.50;99.90
19085;DHT22;9675;51.538;6.728;2023-06-10T09:25:09;27.60;99.90
19085;DHT22;9675;51.538;6.728;2023-06-10T09:27:44;27.70;99.90
19085;DHT22;9675;51.538;6.728;2023-06-10T09:30:24;27.80;99.90
19085;DHT22;9675;51.538;6.728;2023-06-10T09:32:53;28.00;99.90
19085;DHT22;9675;51.538;6.728;2023-06-10T09:35:24;28.10;99.90
19085;DHT22;9675;51.538;6.728;2023-06-10T09:37:53;28.20;99.90
19085;DHT22;9675;51.538;6.728;2023-06-10T09:40:21;28.40;99.90
19085;DHT22;9675;51.538;6.728;2023-06-10T09:42:53;28.40;99.90
19085;DHT22;9675;51.538;6.728;2023-06-10T09:45:22;28.50;99.90
19085;DHT22;9675;51.538;6.728;2023-06-10T09:47:52;28.60;99.90
19085;DHT22;9675;51.538;6.728;2023-06-10T09:50:20;28.70;99.90
19085;DHT22;9675;51.538;6.728;2023-06-10T09:52:48;28.80;99.90
19085;DHT22;9675;51.538;6.728;2023-06-10T09:55:17;28.90;99.80
19085;DHT22;9675;51.538;6.728;2023-06-10T09:57:44;28.90;99.30
19085;DHT22;9675;51.538;6.728;2023-06-10T10:00:16;29.00;99.50
19085;DHT22;9675;51.538;6.728;2023-06-10T10:02:45;29.10;99.70
19085;DHT22;9675;51.538;6.728;2023-06-10T10:05:14;29.20;99.80
19085;DHT22;9675;51.538;6.728;2023-06-10T10:07:41;29.30;99.50
19085;DHT22;9675;51.538;6.728;2023-06-10T10:10:11;29.40;99.80
19085;DHT22;9675;51.538;6.728;2023-06-10T10:12:39;29.50;99.50
19085;DHT22;9675;51.538;6.728;2023-06-10T10:15:09;29.60;99.30
19085;DHT22;9675;51.538;6.728;2023-06-10T10:17:40;29.70;99.30
19085;DHT22;9675;51.538;6.728;2023-06-10T10:20:14;29.80;99.00
19085;DHT22;9675;51.538;6.728;2023-06-10T10:22:46;30.00;99.10
19085;DHT22;9675;51.538;6.728;2023-06-10T10:25:24;30.10;99.00
19085;DHT22;9675;51.538;6.728;2023-06-10T10:27:57;30.20;99.00
19085;DHT22;9675;51.538;6.728;2023-06-10T10:30:30;30.30;99.00
19085;DHT22;9675;51.538;6.728;2023-06-10T10:33:05;30.40;98.80
19085;DHT22;9675;51.538;6.728;2023-06-10T10:35:36;30.50;98.90
19085;DHT22;9675;51.538;6.728;2023-06-10T10:38:05;30.60;98.30
19085;DHT22;9675;51.538;6.728;2023-06-10T10:40:34;30.60;98.30
19085;DHT22;9675;51.538;6.728;2023-06-10T10:43:02;30.70;98.00
19085;DHT22;9675;51.538;6.728;2023-06-10T10:45:30;30.80;98.10
19085;DHT22;9675;51.538;6.728;2023-06-10T10:48:05;31.00;98.10
19085;DHT22;9675;51.538;6.728;2023-06-10T10:50:37;31.10;97.90
19085;DHT22;9675;51.538;6.728;2023-06-10T10:53:06;31.20;97.80
19085;DHT22;9675;51.538;6.728;2023-06-10T10:55:35;31.30;97.50
19085;DHT22;9675;51.538;6.728;2023-06-10T10:58:04;31.30;97.50
19085;DHT22;9675;51.538;6.728;2023-06-10T11:00:34;31.40;97.20
19085;DHT22;9675;51.538;6.728;2023-06-10T11:03:06;31.50;97.00
19085;DHT22;9675;51.538;6.728;2023-06-10T11:05:39;31.60;97.00
19085;DHT22;9675;51.538;6.728;2023-06-10T11:08:09;31.70;96.70
19085;DHT22;9675;51.538;6.728;2023-06-10T11:10:40;31.80;96.70
19085;DHT22;9675;51.538;6.728;2023-06-10T11:13:09;31.90;96.40
19085;DHT22;9675;51.538;6.728;2023-06-10T11:15:39;31.90;96.30
19085;DHT22;9675;51.538;6.728;2023-06-10T11:18:20;32.00;96.30
19085;DHT22;9675;51.538;6.728;2023-06-10T11:20:55;32.10;96.20
19085;DHT22;9675;51.538;6.728;2023-06-10T11:23:34;32.20;95.70
19085;DHT22;9675;51.538;6.728;2023-06-10T11:26:20;32.20;95.70
19085;DHT22;9675;51.538;6.728;2023-06-10T11:29:05;32.40;95.70
19085;DHT22;9675;51.538;6.728;2023-06-10T11:31:45;32.50;95.50
19085;DHT22;9675;51.538;6.728;2023-06-10T11:34:21;32.50;95.10
19085;DHT22;9675;51.538;6.728;2023-06-10T11:36:51;32.50;94.90
19085;DHT22;9675;51.538;6.728;2023-06-10T11:39:21;32.60;95.20
19085;DHT22;9675;51.538;6.728;2023-06-10T11:41:51;32.70;95.10
19085;DHT22;9675;51.538;6.728;2023-06-10T11:44:18;32.80;95.30
19085;DHT22;9675;51.538;6.728;2023-06-10T11:46:47;32.80;91.90
19085;DHT22;9675;51.538;6.728;2023-06-10T11:49:15;32.80;92.50
19085;DHT22;9675;51.538;6.728;2023-06-10T11:51:42;32.70;93.00
19085;DHT22;9675;51.538;6.728;2023-06-10T11:54:14;32.60;93.00
19085;DHT22;9675;51.538;6.728;2023-06-10T11:56:42;32.60;92.80
19085;DHT22;9675;51.538;6.728;2023-06-10T11:59:11;32.60;92.90
19085;DHT22;9675;51.538;6.728;2023-06-10T12:01:42;32.70;92.90
19085;DHT22;9675;51.538;6.728;2023-06-10T12:04:12;32.90;92.60
19085;DHT22;9675;51.538;6.728;2023-06-10T12:06:42;33.30;93.40
19085;DHT22;9675;51.538;6.728;2023-06-10T12:09:17;34.00;92.70
19085;DHT22;9675;51.538;6.728;2023-06-10T12:11:45;34.60;92.90
19085;DHT22;9675;51.538;6.728;2023-06-10T12:14:52;35.20;92.70
19085;DHT22;9675;51.538;6.728;2023-06-10T12:17:23;35.70;92.00
19085;DHT22;9675;51.538;6.728;2023-06-10T12:20:03;35.90;91.40
19085;DHT22;9675;51.538;6.728;2023-06-10T12:22:37;36.00;91.70
19085;DHT22;9675;51.538;6.728;2023-06-10T12:25:06;36.10;91.50
19085;DHT22;9675;51.538;6.728;2023-06-10T12:27:35;36.20;91.30
19085;DHT22;9675;51.538;6.728;2023-06-10T12:30:06;36.30;91.00
19085;DHT22;9675;51.538;6.728;2023-06-10T12:32:38;36.30;90.70
19085;DHT22;9675;51.538;6.728;2023-06-10T12:35:07;36.30;90.00
19085;DHT22;9675;51.538;6.728;2023-06-10T12:37:35;36.40;89.40
19085;DHT22;9675;51.538;6.728;2023-06-10T12:40:04;36.50;89.80
19085;DHT22;9675;51.538;6.728;2023-06-10T12:42:34;36.50;90.00
19085;DHT22;9675;51.538;6.728;2023-06-10T12:45:04;36.50;90.10
19085;DHT22;9675;51.538;6.728;2023-06-10T12:47:35;36.50;88.80
19085;DHT22;9675;51.538;6.728;2023-06-10T12:50:05;36.60;88.50
19085;DHT22;9675;51.538;6.728;2023-06-10T12:52:33;36.70;87.80
19085;DHT22;9675;51.538;6.728;2023-06-10T12:55:00;36.70;88.30
19085;DHT22;9675;51.538;6.728;2023-06-10T12:57:29;36.80;87.70
19085;DHT22;9675;51.538;6.728;2023-06-10T12:59:56;36.80;86.80
19085;DHT22;9675;51.538;6.728;2023-06-10T13:02:31;36.90;87.10
19085;DHT22;9675;51.538;6.728;2023-06-10T13:04:59;36.90;87.10
19085;DHT22;9675;51.538;6.728;2023-06-10T13:07:28;36.90;86.90
19085;DHT22;9675;51.538;6.728;2023-06-10T13:09:56;36.90;86.00
19085;DHT22;9675;51.538;6.728;2023-06-10T13:12:25;37.00;86.20
19085;DHT22;9675;51.538;6.728;2023-06-10T13:14:54;37.00;85.00
19085;DHT22;9675;51.538;6.728;2023-06-10T13:17:23;37.10;85.00
19085;DHT22;9675;51.538;6.728;2023-06-10T13:19:52;37.00;85.30
19085;DHT22;9675;51.538;6.728;2023-06-10T13:22:19;37.10;84.30
19085;DHT22;9675;51.538;6.728;2023-06-10T13:24:47;37.10;84.40
19085;DHT22;9675;51.538;6.728;2023-06-10T13:27:14;37.10;83.40
19085;DHT22;9675;51.538;6.728;2023-06-10T13:29:41;37.20;84.50
19085;DHT22;9675;51.538;6.728;2023-06-10T13:32:08;37.30;84.50
19085;DHT22;9675;51.538;6.728;2023-06-10T13:34:36;37.30;83.10
19085;DHT22;9675;51.538;6.728;2023-06-10T13:37:05;37.30;82.70
19085;DHT22;9675;51.538;6.728;2023-06-10T13:39:32;37.30;82.40
19085;DHT22;9675;51.538;6.728;2023-06-10T13:41:59;37.20;81.60
19085;DHT22;9675;51.538;6.728;2023-06-10T13:44:26;37.30;82.10
19085;DHT22;9675;51.538;6.728;2023-06-10T13:46:56;37.30;83.10
19085;DHT22;9675;51.538;6.728;2023-06-10T13:49:23;37.30;83.10
19085;DHT22;9675;51.538;6.728;2023-06-10T13:51:50;37.30;81.50
19085;DHT22;9675;51.538;6.728;2023-06-10T13:54:18;37.40;81.60
19085;DHT22;9675;51.538;6.728;2023-06-10T13:56:46;37.30;82.00
19085;DHT22;9675;51.538;6.728;2023-06-10T13:59:13;37.40;81.70
19085;DHT22;9675;51.538;6.728;2023-06-10T14:01:40;37.40;82.80
19085;DHT22;9675;51.538;6.728;2023-06-10T14:04:07;37.40;81.60
19085;DHT22;9675;51.538;6.728;2023-06-10T14:06:34;37.50;82.20
19085;DHT22;9675;51.538;6.728;2023-06-10T14:09:02;37.50;81.50
19085;DHT22;9675;51.538;6.728;2023-06-10T14:11:31;37.50;82.00
19085;DHT22;9675;51.538;6.728;2023-06-10T14:13:58;37.50;82.50
19085;DHT22;9675;51.538;6.728;2023-06-10T14:16:26;37.50;81.60
19085;DHT22;9675;51.538;6.728;2023-06-10T14:18:54;37.50;82.90
19085;DHT22;9675;51.538;6.728;2023-06-10T14:21:21;37.50;81.90
19085;DHT22;9675;51.538;6.728;2023-06-10T14:23:48;37.50;80.90
19085;DHT22;9675;51.538;6.728;2023-06-10T14:26:17;37.40;81.40
19085;DHT22;9675;51.538;6.728;2023-06-10T14:28:45;37.50;81.50
19085;DHT22;9675;51.538;6.728;2023-06-10T14:31:12;37.50;80.60
19085;DHT22;9675;51.538;6.728;2023-06-10T14:33:40;37.50;80.70
19085;DHT22;9675;51.538;6.728;2023-06-10T14:36:09;37.50;81.00
19085;DHT22;9675;51.538;6.728;2023-06-10T14:38:37;37.30;80.50
19085;DHT22;9675;51.538;6.728;2023-06-10T14:41:04;37.30;80.10
19085;DHT22;9675;51.538;6.728;2023-06-10T14:43:31;37.10;80.40
19085;DHT22;9675;51.538;6.728;2023-06-10T14:45:59;37.10;80.60
19085;DHT22;9675;51.538;6.728;2023-06-10T14:48:26;37.10;81.30
19085;DHT22;9675;51.538;6.728;2023-06-10T14:50:53;37.10;81.10
19085;DHT22;9675;51.538;6.728;2023-06-10T14:53:20;37.10;81.40
19085;DHT22;9675;51.538;6.728;2023-06-10T14:55:48;37.10;82.00
19085;DHT22;9675;51.538;6.728;2023-06-10T14:58:15;37.10;81.00
19085;DHT22;9675;51.538;6.728;2023-06-10T15:00:42;37.00;80.10
19085;DHT22;9675;51.538;6.728;2023-06-10T15:03:11;37.00;80.80
19085;DHT22;9675;51.538;6.728;2023-06-10T15:05:38;37.00;80.80
19085;DHT22;9675;51.538;6.728;2023-06-10T15:08:05;37.00;80.90
19085;DHT22;9675;51.538;6.728;2023-06-10T15:10:33;37.00;80.60
19085;DHT22;9675;51.538;6.728;2023-06-10T15:13:00;36.90;81.30
19085;DHT22;9675;51.538;6.728;2023-06-10T15:15:27;36.90;80.90
19085;DHT22;9675;51.538;6.728;2023-06-10T15:17:54;36.90;81.00
19085;DHT22;9675;51.538;6.728;2023-06-10T15:20:23;37.00;81.10
19085;DHT22;9675;51.538;6.728;2023-06-10T15:22:50;37.00;81.70
19085;DHT22;9675;51.538;6.728;2023-06-10T15:25:19;37.10;81.40
19085;DHT22;9675;51.538;6.728;2023-06-10T15:27:46;37.00;81.30
19085;DHT22;9675;51.538;6.728;2023-06-10T15:30:13;36.90;81.40
19085;DHT22;9675;51.538;6.728;2023-06-10T15:32:40;37.00;81.90
19085;DHT22;9675;51.538;6.728;2023-06-10T15:35:08;36.90;81.90
19085;DHT22;9675;51.538;6.728;2023-06-10T15:37:37;36.90;82.10
19085;DHT22;9675;51.538;6.728;2023-06-10T15:40:05;36.90;82.00
19085;DHT22;9675;51.538;6.728;2023-06-10T15:42:33;36.80;81.60
19085;DHT22;9675;51.538;6.728;2023-06-10T15:45:00;36.80;82.00
19085;DHT22;9675;51.538;6.728;2023-06-10T15:47:27;36.80;82.30
19085;DHT22;9675;51.538;6.728;2023-06-10T15:49:54;36.80;82.10
19085;DHT22;9675;51.538;6.728;2023-06-10T15:52:21;36.70;80.80
19085;DHT22;9675;51.538;6.728;2023-06-10T15:54:50;36.50;81.60